Kezdőlap
METAR-TAF:

METAR-TAF

Repülőterek :

Pitt-Greenville Airport

Greenville, Észak-Karolina, Amerikai Egyesült Államok

földrajzi szélesség: 35-38N, földrajzi hosszúság: 077-24W, magasság: 8 m

Jelenlegi meteorológiai megfigyelések

A jelentés 23 perccel ezelõtt készült, 08:45 UTC
Szélcsend
Hőmérséklet 17°C
Páratartalom 100%
Légköri nyomás 1014 hPa
Látótávolság: 16.1 km
Derült ég

METAR: KPGV 140845Z AUTO 00000KT 10SM CLR 17/17 A2995 RMK AO2

Idő: 05:08 (09:08 UTC)

Előrejelzés

A jelentés 3 órával és 18 perccel ezelõtt készült, 05:50 UTC
Az előrejelzés 14-én 06 óra UTC és 15-én 06 óra UTC között érvényes
Észak-északkeleti szél 5 kt
Látótávolság: 10 km
Derült ég

TAF: KPGV 140550Z 1406/1506 02005KT P6SM SKC AMD LTD TO CLD VIS AND WIND

Meteorológiai megfigyelések és előrejelzések több, mint 4000 repülőtéren (METAR és TAF jelentéseket).

A térképen piros és sárga pontok jelzik az elérhető meteorológiai állomásokat.

Mozgassa az egeret a pont fölött, hogy megjelenjen az állomás neve.

Azután kattintson az időjárási megfigyelések és előrejelzések megtekintéséhez.

A térkép megváltoztatása: kattintson a fekete keresztel jelölt zöld gombra ráközelítéshez, a vonallal jelölt zöld gombra távolításhoz, vagy a zöld nyilakra a szomszédos térképek eléréséhez.


METAR-TAF: